Time;durP1;ratioP1;P1;durP2;ratioP2;P2;SDS_P1;SDS_P2;PMS_P1;PMS_P2;Temp;Humidity;BMP_temperature;BMP_pressure;BME280_temperature;BME280_humidity;BME280_pressure;Samples;Min_cycle;Max_cycle;Signal;HPM_P1;HPM_P2
2023/04/03 00:00:41;;;;;;;0.70;0.70;;;3.70;99.90;;;;;;5025432;28;20134;-74
2023/04/03 00:03:07;;;;;;;0.93;0.93;;;3.60;99.90;;;;;;5023067;28;20090;-75
2023/04/03 00:05:33;;;;;;;2.10;0.53;;;3.60;99.90;;;;;;5025229;28;20060;-76
2023/04/03 00:07:58;;;;;;;0.57;0.57;;;3.60;99.90;;;;;;5025953;28;20043;-74
2023/04/03 00:10:24;;;;;;;0.75;0.75;;;3.50;99.90;;;;;;5025283;28;20056;-74
2023/04/03 00:12:49;;;;;;;1.45;0.55;;;3.50;99.90;;;;;;5024823;28;20040;-74
2023/04/03 00:15:15;;;;;;;1.08;1.08;;;3.50;99.90;;;;;;5023611;28;20403;-75
2023/04/03 00:17:41;;;;;;;0.38;0.38;;;3.50;99.90;;;;;;5023940;28;20033;-75
2023/04/03 00:20:08;;;;;;;0.52;0.52;;;3.50;99.90;;;;;;5007342;28;20678;-74
2023/04/03 00:22:33;;;;;;;2.80;1.80;;;3.50;99.90;;;;;;5025326;28;20088;-74
2023/04/03 00:24:59;;;;;;;3.05;1.15;;;3.50;99.90;;;;;;5025710;28;20392;-74
2023/04/03 00:27:24;;;;;;;2.85;1.85;;;3.50;99.90;;;;;;5025488;28;20144;-75
2023/04/03 00:29:50;;;;;;;0.55;0.55;;;3.50;99.90;;;;;;5025112;28;20038;-76
2023/04/03 00:32:16;;;;;;;0.57;0.40;;;3.50;99.90;;;;;;5022411;28;20049;-76
2023/04/03 00:34:41;;;;;;;0.90;0.90;;;3.40;99.90;;;;;;5025090;28;20369;-76
2023/04/03 00:37:07;;;;;;;2.40;1.27;;;3.40;99.90;;;;;;5023781;28;20044;-75
2023/04/03 00:39:32;;;;;;;2.25;1.25;;;3.40;99.90;;;;;;5023896;28;20049;-77
2023/04/03 00:41:58;;;;;;;0.57;0.57;;;3.40;99.90;;;;;;5025386;28;20042;-76
2023/04/03 00:44:32;;;;;;;0.38;0.38;;;3.30;99.90;;;;;;5024725;28;20463;-76
2023/04/03 00:46:58;;;;;;;0.93;0.93;;;3.30;99.90;;;;;;5024011;28;20061;-77
2023/04/03 00:49:24;;;;;;;1.40;1.30;;;3.40;99.90;;;;;;5023012;28;20037;-77
2023/04/03 00:51:50;;;;;;;1.13;0.68;;;3.30;99.90;;;;;;5023576;28;20061;-76
2023/04/03 00:54:16;;;;;;;2.17;1.25;;;3.30;99.90;;;;;;5023945;28;20484;-76
2023/04/03 00:56:43;;;;;;;2.15;1.63;;;3.30;99.90;;;;;;5023682;28;20049;-77
2023/04/03 00:59:14;;;;;;;1.57;1.43;;;3.30;99.90;;;;;;5023213;28;20048;-77
2023/04/03 01:01:41;;;;;;;0.52;0.52;;;3.30;99.90;;;;;;5022268;28;20117;-76
2023/04/03 01:04:26;;;;;;;0.77;0.77;;;3.20;99.90;;;;;;5022841;28;20512;-78
2023/04/03 01:06:52;;;;;;;1.03;1.03;;;3.20;99.90;;;;;;5024456;28;20091;-76
2023/04/03 01:09:17;;;;;;;0.90;0.90;;;3.20;99.90;;;;;;5023445;28;20057;-77
2023/04/03 01:11:43;;;;;;;0.70;0.70;;;3.20;99.90;;;;;;5059900;22;20498;-77
2023/04/03 01:14:09;;;;;;;0.40;0.40;;;3.20;99.90;;;;;;4984400;28;20062;-76
2023/04/03 01:16:34;;;;;;;2.00;1.52;;;3.20;99.90;;;;;;4984495;28;20045;-76
2023/04/03 01:19:01;;;;;;;1.65;1.05;;;3.10;99.90;;;;;;4983386;28;20050;-77
2023/04/03 01:21:47;;;;;;;0.73;0.63;;;3.10;99.90;;;;;;4985099;28;20048;-76
2023/04/03 01:24:19;;;;;;;0.40;0.40;;;3.10;99.90;;;;;;4983913;28;20054;-76
2023/04/03 01:26:45;;;;;;;0.45;0.40;;;3.10;99.90;;;;;;4984667;28;20497;-76
2023/04/03 01:29:11;;;;;;;0.67;0.63;;;3.10;99.90;;;;;;4983443;28;20053;-76
2023/04/03 01:31:55;;;;;;;0.70;0.70;;;3.00;99.90;;;;;;4984096;28;20397;-75
2023/04/03 01:34:21;;;;;;;0.33;0.33;;;3.10;99.90;;;;;;4982915;28;20101;-76
2023/04/03 01:36:47;;;;;;;0.93;0.93;;;3.00;99.90;;;;;;4984903;28;20061;-76
2023/04/03 01:39:12;;;;;;;0.73;0.73;;;3.00;99.90;;;;;;4983484;28;20737;-77
2023/04/03 01:41:38;;;;;;;0.20;0.20;;;3.00;99.90;;;;;;4984841;28;20046;-76
2023/04/03 01:44:04;;;;;;;0.63;0.63;;;2.90;99.90;;;;;;4984833;28;20046;-75
2023/04/03 01:46:30;;;;;;;1.50;1.27;;;2.90;99.90;;;;;;4983217;28;20073;-78
2023/04/03 01:48:55;;;;;;;0.80;0.80;;;2.90;99.90;;;;;;4965949;28;20138;-76
2023/04/03 01:51:21;;;;;;;0.70;0.70;;;2.90;99.90;;;;;;4983133;28;20038;-77
2023/04/03 01:53:47;;;;;;;0.60;0.60;;;2.90;99.90;;;;;;4983117;28;20097;-75
2023/04/03 01:56:12;;;;;;;0.77;0.77;;;2.80;99.90;;;;;;4984381;28;20074;-75
2023/04/03 01:58:38;;;;;;;2.20;1.07;;;2.80;99.90;;;;;;4983497;28;20049;-76
2023/04/03 02:01:03;;;;;;;1.03;0.93;;;2.80;99.90;;;;;;4983159;28;20559;-77
2023/04/03 02:03:29;;;;;;;1.93;1.13;;;2.80;99.90;;;;;;4983881;28;20046;-79
2023/04/03 02:05:55;;;;;;;0.63;0.63;;;2.80;99.90;;;;;;4983143;28;20041;-76
2023/04/03 02:08:21;;;;;;;4.23;0.83;;;2.70;99.90;;;;;;4984410;28;20108;-75
2023/04/03 02:10:48;;;;;;;0.87;0.83;;;2.70;99.90;;;;;;4983276;28;20066;-75
2023/04/03 02:13:14;;;;;;;1.23;0.57;;;2.70;99.90;;;;;;4982565;28;20791;-76
2023/04/03 02:15:40;;;;;;;2.00;0.97;;;2.70;99.90;;;;;;4984838;28;20133;-75
2023/04/03 02:18:06;;;;;;;1.10;1.10;;;2.70;99.90;;;;;;4983517;28;20121;-76
2023/04/03 02:20:32;;;;;;;0.87;0.87;;;2.70;99.90;;;;;;4964865;28;20047;-76
2023/04/03 02:22:59;;;;;;;0.77;0.77;;;2.60;99.90;;;;;;4964096;28;20109;-77
2023/04/03 02:25:24;;;;;;;0.70;0.70;;;2.60;99.90;;;;;;4965242;28;20035;-76
2023/04/03 02:27:50;;;;;;;1.23;1.13;;;2.60;99.90;;;;;;4979920;28;20492;-75
2023/04/03 02:30:16;;;;;;;0.60;0.60;;;2.60;99.90;;;;;;4963907;28;20066;-76
2023/04/03 02:32:42;;;;;;;0.50;0.43;;;2.60;99.90;;;;;;4964005;28;20043;-77
2023/04/03 02:35:08;;;;;;;0.20;0.20;;;2.60;99.90;;;;;;4965279;28;20074;-78
2023/04/03 02:37:34;;;;;;;0.30;0.30;;;2.60;99.90;;;;;;4986426;28;20043;-76
2023/04/03 02:40:00;;;;;;;0.50;0.50;;;2.50;99.90;;;;;;4987845;28;20046;-78
2023/04/03 02:42:26;;;;;;;0.40;0.40;;;2.50;99.90;;;;;;4988342;28;20117;-77
2023/04/03 02:44:51;;;;;;;1.27;1.17;;;2.50;99.90;;;;;;4987693;28;20062;-76
2023/04/03 02:47:17;;;;;;;0.57;0.57;;;2.50;99.90;;;;;;4986678;28;20602;-77
2023/04/03 02:49:46;;;;;;;1.40;0.60;;;2.50;99.90;;;;;;4987207;28;20507;-76
2023/04/03 02:52:13;;;;;;;0.30;0.30;;;2.50;99.90;;;;;;4986988;28;20448;-76
2023/04/03 02:54:38;;;;;;;0.30;0.30;;;2.50;99.90;;;;;;4987459;28;20042;-77
2023/04/03 02:57:04;;;;;;;0.83;0.57;;;2.50;99.90;;;;;;4986269;28;20046;-75
2023/04/03 02:59:30;;;;;;;0.60;0.60;;;2.40;99.90;;;;;;4987786;28;20042;-79
2023/04/03 03:01:56;;;;;;;0.60;0.60;;;2.40;99.90;;;;;;4985951;28;20045;-76
2023/04/03 03:04:22;;;;;;;0.40;0.40;;;2.40;99.90;;;;;;4987201;28;20050;-77
2023/04/03 03:06:47;;;;;;;0.60;0.60;;;2.40;99.90;;;;;;4987066;28;20038;-76
2023/04/03 03:09:13;;;;;;;1.90;0.57;;;2.30;99.90;;;;;;4987350;28;20040;-76
2023/04/03 03:11:39;;;;;;;0.40;0.40;;;2.30;99.90;;;;;;4987344;28;20089;-76
2023/04/03 03:14:05;;;;;;;0.83;0.83;;;2.30;99.90;;;;;;4986740;28;20053;-77
2023/04/03 03:16:30;;;;;;;0.70;0.70;;;2.30;99.90;;;;;;4986124;28;20129;-77
2023/04/03 03:18:56;;;;;;;3.03;1.03;;;2.30;99.90;;;;;;4986316;28;20157;-77
2023/04/03 03:21:22;;;;;;;0.60;0.60;;;2.30;99.90;;;;;;4986917;28;20042;-77
2023/04/03 03:23:47;;;;;;;0.50;0.50;;;2.30;99.90;;;;;;4970867;28;20042;-76
2023/04/03 03:26:13;;;;;;;2.33;1.17;;;2.20;99.90;;;;;;4967490;28;20050;-76
2023/04/03 03:28:40;;;;;;;0.53;0.53;;;2.20;99.90;;;;;;4967628;28;20456;-77
2023/04/03 03:31:07;;;;;;;6.03;0.77;;;2.20;99.90;;;;;;4966059;28;20122;-76
2023/04/03 03:33:33;;;;;;;0.23;0.23;;;2.20;99.90;;;;;;4965505;28;20043;-75
2023/04/03 03:35:59;;;;;;;0.60;0.60;;;2.10;99.90;;;;;;4979574;28;20052;-76
2023/04/03 03:38:25;;;;;;;0.37;0.37;;;2.10;99.90;;;;;;4985821;28;20046;-76
2023/04/03 03:40:51;;;;;;;0.80;0.80;;;2.10;99.90;;;;;;4986963;28;20100;-76
2023/04/03 03:43:17;;;;;;;0.60;0.60;;;2.10;99.90;;;;;;4986573;28;20058;-76
2023/04/03 03:45:43;;;;;;;0.30;0.30;;;2.10;99.90;;;;;;4986520;28;20485;-76
2023/04/03 03:48:09;;;;;;;0.27;0.27;;;2.10;99.90;;;;;;4984407;28;20523;-77
2023/04/03 03:50:35;;;;;;;1.07;1.00;;;2.00;99.90;;;;;;4986598;28;20082;-76
2023/04/03 03:53:00;;;;;;;0.80;0.80;;;2.00;99.90;;;;;;4986032;28;20050;-77
2023/04/03 03:55:26;;;;;;;1.07;1.00;;;2.00;99.90;;;;;;4986863;28;20050;-76
2023/04/03 03:57:52;;;;;;;0.87;0.50;;;2.00;99.90;;;;;;4986714;28;20038;-77
2023/04/03 04:00:17;;;;;;;0.40;0.40;;;2.00;99.90;;;;;;4986071;28;20126;-77
2023/04/03 04:02:43;;;;;;;0.57;0.57;;;2.00;99.90;;;;;;4985381;28;20078;-76
2023/04/03 04:05:09;;;;;;;0.60;0.60;;;2.00;99.90;;;;;;4985952;28;20435;-75
2023/04/03 04:07:35;;;;;;;3.30;2.07;;;2.00;99.90;;;;;;4986477;28;20046;-75
2023/04/03 04:10:00;;;;;;;0.87;0.87;;;1.90;99.90;;;;;;4985816;28;20125;-77
2023/04/03 04:12:26;;;;;;;0.83;0.83;;;1.90;99.90;;;;;;4986521;28;20062;-77
2023/04/03 04:14:52;;;;;;;1.03;1.03;;;1.90;99.90;;;;;;4986257;28;20650;-76
2023/04/03 04:17:17;;;;;;;1.03;0.60;;;1.90;99.90;;;;;;4984830;28;20049;-76
2023/04/03 04:19:43;;;;;;;1.70;0.87;;;1.90;99.90;;;;;;4986340;28;20135;-76
2023/04/03 04:22:09;;;;;;;2.80;1.13;;;1.80;99.90;;;;;;4986227;28;20089;-77
2023/04/03 04:24:34;;;;;;;0.57;0.57;;;1.80;99.90;;;;;;4985838;28;20070;-78
2023/04/03 04:27:00;;;;;;;0.50;0.50;;;1.80;99.90;;;;;;4985912;28;20065;-78
2023/04/03 04:29:25;;;;;;;0.40;0.40;;;1.80;99.90;;;;;;4985470;28;20049;-76
2023/04/03 04:31:51;;;;;;;5.20;1.53;;;1.80;99.90;;;;;;4984942;28;20468;-75
2023/04/03 04:34:16;;;;;;;1.10;1.10;;;1.80;99.90;;;;;;4985187;28;20054;-78
2023/04/03 04:36:42;;;;;;;3.13;1.00;;;1.70;99.90;;;;;;4984330;28;20056;-76
2023/04/03 04:39:08;;;;;;;0.70;0.70;;;1.70;99.90;;;;;;4984048;28;20508;-76
2023/04/03 04:41:34;;;;;;;1.27;1.17;;;1.70;99.90;;;;;;4985602;28;20045;-76
2023/04/03 04:44:00;;;;;;;1.30;0.40;;;1.60;99.90;;;;;;4984412;28;20054;-79
2023/04/03 04:46:26;;;;;;;10.73;1.23;;;1.60;99.90;;;;;;4984884;28;20508;-77
2023/04/03 04:48:51;;;;;;;0.87;0.87;;;1.60;99.90;;;;;;4985295;28;20050;-76
2023/04/03 04:51:17;;;;;;;6.27;0.97;;;1.50;99.90;;;;;;4985427;28;20117;-76
2023/04/03 04:53:43;;;;;;;0.37;0.37;;;1.50;99.90;;;;;;4985447;28;20038;-76
2023/04/03 04:56:08;;;;;;;6.60;1.13;;;1.50;99.90;;;;;;4984123;28;20046;-76
2023/04/03 04:58:34;;;;;;;1.63;1.53;;;1.50;99.90;;;;;;4985001;28;20554;-77
2023/04/03 05:01:05;;;;;;;1.70;1.07;;;1.50;99.90;;;;;;4982979;28;20084;-77
2023/04/03 05:03:31;;;;;;;1.30;0.90;;;1.50;99.90;;;;;;4984664;28;20038;-76
2023/04/03 05:05:56;;;;;;;1.30;1.30;;;1.60;99.90;;;;;;4985773;28;20043;-77
2023/04/03 05:08:22;;;;;;;2.23;1.47;;;1.50;99.90;;;;;;4985119;28;20045;-77
2023/04/03 05:10:48;;;;;;;6.53;1.93;;;1.50;99.90;;;;;;4984765;28;20085;-76
2023/04/03 05:13:14;;;;;;;0.40;0.40;;;1.50;99.90;;;;;;4983674;28;20097;-76
2023/04/03 05:15:40;;;;;;;3.03;0.83;;;1.50;99.90;;;;;;4984059;28;20065;-76
2023/04/03 05:18:05;;;;;;;0.43;0.43;;;1.50;99.90;;;;;;4982617;28;20069;-76
2023/04/03 05:20:32;;;;;;;3.80;2.33;;;1.50;99.90;;;;;;4984385;28;20053;-77
2023/04/03 05:22:57;;;;;;;0.70;0.70;;;1.50;99.90;;;;;;4985202;28;20053;-76
2023/04/03 05:25:23;;;;;;;5.93;1.03;;;1.50;99.90;;;;;;4984210;28;20042;-76
2023/04/03 05:27:49;;;;;;;2.27;1.20;;;1.50;99.90;;;;;;4984667;28;21208;-77
2023/04/03 05:30:15;;;;;;;1.23;0.67;;;1.40;99.90;;;;;;4979316;28;20043;-78
2023/04/03 05:32:41;;;;;;;1.63;1.53;;;1.40;99.90;;;;;;4980046;28;20045;-76
2023/04/03 05:35:08;;;;;;;1.20;1.13;;;1.40;99.90;;;;;;4965255;28;20043;-77
2023/04/03 05:37:34;;;;;;;1.50;1.40;;;1.40;99.90;;;;;;4971790;28;20042;-77
2023/04/03 05:40:00;;;;;;;1.80;0.63;;;1.40;99.90;;;;;;4982817;28;20074;-79
2023/04/03 05:42:25;;;;;;;1.30;1.23;;;1.40;99.90;;;;;;4983763;28;20639;-77
2023/04/03 05:44:51;;;;;;;1.37;1.27;;;1.40;99.90;;;;;;4984410;28;20034;-78
2023/04/03 05:47:18;;;;;;;1.53;1.23;;;1.40;99.90;;;;;;4974675;28;20070;-76
2023/04/03 05:49:45;;;;;;;1.17;0.53;;;1.40;99.90;;;;;;4964104;28;20517;-77
2023/04/03 05:52:29;;;;;;;3.20;1.17;;;1.50;99.90;;;;;;4994511;28;20030;-76
2023/04/03 05:54:55;;;;;;;2.37;2.03;;;1.50;99.90;;;;;;4961535;28;20054;-77
2023/04/03 05:57:21;;;;;;;2.63;1.27;;;1.40;99.90;;;;;;4980989;28;20035;-76
2023/04/03 05:59:47;;;;;;;1.37;1.27;;;1.50;99.90;;;;;;4983083;28;20062;-80
2023/04/03 06:02:15;;;;;;;0.80;0.80;;;1.50;99.90;;;;;;4977673;28;20034;-83
2023/04/03 06:04:40;;;;;;;1.63;1.53;;;1.50;99.90;;;;;;4984232;28;20496;-83
2023/04/03 06:07:07;;;;;;;0.40;0.40;;;1.50;99.90;;;;;;4983452;28;20042;-82
2023/04/03 06:09:33;;;;;;;1.27;1.00;;;1.50;99.90;;;;;;4983305;28;20067;-81
2023/04/03 06:11:59;;;;;;;0.40;0.40;;;1.50;99.90;;;;;;4986096;28;20058;-82
2023/04/03 06:14:25;;;;;;;1.27;1.00;;;1.50;99.90;;;;;;4986974;28;20065;-82
2023/04/03 06:16:52;;;;;;;3.40;0.93;;;1.60;99.90;;;;;;4975881;28;20054;-78
2023/04/03 06:19:17;;;;;;;1.13;1.03;;;1.60;99.90;;;;;;4985405;28;20038;-85
2023/04/03 06:21:43;;;;;;;1.33;1.23;;;1.60;99.90;;;;;;4986336;28;20054;-81
2023/04/03 06:24:12;;;;;;;1.67;1.20;;;1.60;99.90;;;;;;4987170;28;20038;-82
2023/04/03 06:26:37;;;;;;;0.47;0.40;;;1.60;99.90;;;;;;4985069;28;20424;-81
2023/04/03 06:29:03;;;;;;;1.07;1.03;;;1.70;99.90;;;;;;4987600;28;20045;-81
2023/04/03 06:31:29;;;;;;;0.63;0.63;;;1.70;99.90;;;;;;4986092;28;20125;-80
2023/04/03 06:33:56;;;;;;;0.97;0.97;;;1.70;99.90;;;;;;4986132;28;20136;-85
2023/04/03 06:36:21;;;;;;;1.87;1.10;;;1.70;99.90;;;;;;4986414;28;20042;-83
2023/04/03 06:38:48;;;;;;;0.57;0.57;;;1.80;99.90;;;;;;4985206;28;20116;-79
2023/04/03 06:41:14;;;;;;;1.50;1.40;;;1.80;99.90;;;;;;4986738;28;20397;-81
2023/04/03 06:43:39;;;;;;;3.23;1.27;;;1.80;99.90;;;;;;4986835;28;20097;-82
2023/04/03 06:46:06;;;;;;;4.07;1.57;;;1.80;99.90;;;;;;4984133;28;20074;-82
2023/04/03 06:48:31;;;;;;;6.17;2.13;;;1.90;99.90;;;;;;4968360;28;20047;-81
2023/04/03 06:50:57;;;;;;;10.53;0.73;;;1.90;99.90;;;;;;4979976;28;20095;-77
2023/04/03 06:53:23;;;;;;;2.30;1.67;;;2.00;99.90;;;;;;4986476;28;20524;-82
2023/04/03 06:55:49;;;;;;;1.27;1.23;;;2.00;99.90;;;;;;4986145;28;20393;-83
2023/04/03 06:58:17;;;;;;;1.90;1.73;;;2.00;99.90;;;;;;4984964;28;20043;-83
2023/04/03 07:00:42;;;;;;;0.50;0.50;;;2.10;99.90;;;;;;4985867;28;20421;-81
2023/04/03 07:03:08;;;;;;;1.00;0.77;;;2.10;99.90;;;;;;4985123;28;20046;-82
2023/04/03 07:05:33;;;;;;;1.33;1.30;;;2.20;99.90;;;;;;4986824;28;20366;-83
2023/04/03 07:07:59;;;;;;;5.80;1.93;;;2.20;99.90;;;;;;4984626;28;20046;-79
2023/04/03 07:10:25;;;;;;;1.23;1.13;;;2.20;99.90;;;;;;4986418;28;20073;-80
2023/04/03 07:12:51;;;;;;;2.70;1.43;;;2.20;99.90;;;;;;4984469;28;20054;-81
2023/04/03 07:15:16;;;;;;;5.03;2.10;;;2.20;99.90;;;;;;4986285;28;20053;-83
2023/04/03 07:17:42;;;;;;;1.57;1.40;;;2.30;99.90;;;;;;4976054;28;20038;-84
2023/04/03 07:20:08;;;;;;;2.00;1.80;;;2.30;99.90;;;;;;4982491;28;20038;-79
2023/04/03 07:22:34;;;;;;;1.50;1.40;;;2.30;99.90;;;;;;4972606;28;20500;-81
2023/04/03 07:25:00;;;;;;;3.90;1.40;;;2.40;99.90;;;;;;4972013;28;20049;-79
2023/04/03 07:27:25;;;;;;;0.77;0.77;;;2.40;99.90;;;;;;4972258;28;20057;-76
2023/04/03 07:29:51;;;;;;;1.47;1.37;;;2.50;99.90;;;;;;4983652;28;20042;-76
2023/04/03 07:32:17;;;;;;;1.37;1.27;;;2.50;99.90;;;;;;4984793;28;20050;-77
2023/04/03 07:34:43;;;;;;;1.07;0.77;;;2.50;99.90;;;;;;4984326;28;20054;-76
2023/04/03 07:37:10;;;;;;;0.93;0.90;;;2.50;99.90;;;;;;4985398;28;20239;-76
2023/04/03 07:39:36;;;;;;;2.10;1.80;;;2.60;99.90;;;;;;4968525;28;20050;-75
2023/04/03 07:42:01;;;;;;;1.77;1.67;;;2.60;99.90;;;;;;4985023;28;20404;-76
2023/04/03 07:44:28;;;;;;;1.13;0.93;;;2.70;99.90;;;;;;4985619;28;20117;-76
2023/04/03 07:46:55;;;;;;;3.37;1.00;;;2.60;99.90;;;;;;4984201;28;20046;-76
2023/04/03 07:49:22;;;;;;;0.60;0.60;;;2.70;99.90;;;;;;4985884;28;20034;-75
2023/04/03 07:51:48;;;;;;;1.53;1.03;;;2.70;99.90;;;;;;4981249;28;20132;-76
2023/04/03 07:54:14;;;;;;;1.20;1.10;;;2.70;99.90;;;;;;4983708;28;20140;-76
2023/04/03 07:56:42;;;;;;;1.47;1.37;;;2.80;99.90;;;;;;4984624;28;20239;-76
2023/04/03 07:59:08;;;;;;;1.87;0.87;;;2.80;99.90;;;;;;4985681;28;20052;-76
2023/04/03 08:01:34;;;;;;;1.10;1.10;;;2.90;99.90;;;;;;4985012;28;20134;-75
2023/04/03 08:04:00;;;;;;;0.77;0.70;;;2.90;99.90;;;;;;4984224;28;20133;-77
2023/04/03 08:06:25;;;;;;;1.27;1.17;;;3.00;99.90;;;;;;4986156;28;20039;-76
2023/04/03 08:08:51;;;;;;;1.00;0.77;;;3.00;99.90;;;;;;4984040;28;20053;-76
2023/04/03 08:11:18;;;;;;;1.10;1.00;;;3.00;99.90;;;;;;4984060;28;20055;-73
2023/04/03 08:13:44;;;;;;;0.77;0.77;;;3.10;99.90;;;;;;4985400;28;20069;-76
2023/04/03 08:16:18;;;;;;;1.60;0.93;;;3.10;99.90;;;;;;4984507;28;20039;-75
2023/04/03 08:18:44;;;;;;;1.33;0.70;;;3.20;99.90;;;;;;4984286;28;20470;-73
2023/04/03 08:21:11;;;;;;;1.87;1.20;;;3.20;99.90;;;;;;4983105;28;20157;-74
2023/04/03 08:23:37;;;;;;;2.00;0.57;;;3.20;99.90;;;;;;4985118;28;20050;-73
2023/04/03 08:26:12;;;;;;;2.00;1.80;;;3.30;99.90;;;;;;4967464;28;20049;-73
2023/04/03 08:28:38;;;;;;;1.30;0.70;;;3.30;99.90;;;;;;4983649;28;20133;-72
2023/04/03 08:31:11;;;;;;;0.97;0.97;;;3.30;99.90;;;;;;4983073;28;20042;-76
2023/04/03 08:33:38;;;;;;;1.47;1.33;;;3.40;99.90;;;;;;4983583;28;20405;-75
2023/04/03 08:36:05;;;;;;;2.57;1.60;;;3.50;99.90;;;;;;4982238;28;20048;-73
2023/04/03 08:38:31;;;;;;;1.17;1.10;;;3.50;99.90;;;;;;4985050;28;20381;-74
2023/04/03 08:41:16;;;;;;;0.60;0.60;;;3.50;99.90;;;;;;4984287;28;20046;-74
2023/04/03 08:43:47;;;;;;;0.50;0.50;;;3.60;99.90;;;;;;4983510;28;20046;-73
2023/04/03 08:46:16;;;;;;;1.17;1.13;;;3.60;99.90;;;;;;4964118;28;20054;-72
2023/04/03 08:48:43;;;;;;;1.63;1.53;;;3.60;99.90;;;;;;4970819;28;20046;-72
2023/04/03 08:51:20;;;;;;;6.80;0.57;;;3.70;99.90;;;;;;4965530;28;20047;-72
2023/04/03 08:54:10;;;;;;;0.80;0.80;;;3.70;99.90;;;;;;4979758;28;20177;-74
2023/04/03 08:56:36;;;;;;;1.27;1.13;;;3.80;99.90;;;;;;4950606;28;20077;-74
2023/04/03 08:59:09;;;;;;;1.23;1.13;;;3.80;99.90;;;;;;4978668;28;20038;-77
2023/04/03 09:01:37;;;;;;;0.80;0.80;;;3.80;99.90;;;;;;4982305;28;20057;-74
2023/04/03 09:04:14;;;;;;;0.67;0.67;;;3.90;99.90;;;;;;4983859;28;20100;-74
2023/04/03 09:06:41;;;;;;;0.20;0.20;;;4.00;99.90;;;;;;4983171;28;20042;-75
2023/04/03 09:09:26;;;;;;;0.08;0.08;;;4.00;99.90;;;;;;4983812;28;20076;-75
2023/04/03 09:12:12;;;;;;;3.72;0.70;;;4.10;99.90;;;;;;4982811;28;20058;-74
2023/04/03 09:14:48;;;;;;;0.43;0.43;;;4.10;99.90;;;;;;4974811;28;20054;-74
2023/04/03 09:17:26;;;;;;;1.90;0.70;;;4.20;99.90;;;;;;4981792;28;20045;-74
2023/04/03 09:20:02;;;;;;;0.35;0.35;;;4.20;99.90;;;;;;4983546;28;20066;-74
2023/04/03 09:22:33;;;;;;;0.20;0.20;;;4.20;99.90;;;;;;4983411;28;20065;-75
2023/04/03 09:25:18;;;;;;;0.45;0.45;;;4.30;99.90;;;;;;4984749;28;20044;-73
2023/04/03 09:27:44;;;;;;;2.70;0.52;;;4.30;99.90;;;;;;4983132;28;20076;-74
2023/04/03 09:30:15;;;;;;;0.40;0.40;;;4.30;99.90;;;;;;4981964;28;20034;-74
2023/04/03 09:32:41;;;;;;;0.52;0.52;;;4.40;99.90;;;;;;4983126;28;20049;-74
2023/04/03 09:35:14;;;;;;;0.10;0.10;;;4.40;99.90;;;;;;4983784;28;20047;-73
2023/04/03 09:37:46;;;;;;;0.32;0.32;;;4.50;99.90;;;;;;4984365;28;20477;-74
2023/04/03 09:40:28;;;;;;;0.90;0.90;;;4.50;99.90;;;;;;4983974;28;20089;-74
2023/04/03 09:43:16;;;;;;;0.40;0.40;;;4.50;99.90;;;;;;4966796;28;20084;-74
2023/04/03 09:45:42;;;;;;;1.45;0.55;;;4.50;99.90;;;;;;4983647;28;20046;-74
2023/04/03 09:48:14;;;;;;;1.17;1.02;;;4.60;99.90;;;;;;4972462;28;20046;-74
2023/04/03 09:50:55;;;;;;;0.38;0.38;;;4.70;99.90;;;;;;4968062;28;20174;-74
2023/04/03 09:53:32;;;;;;;0.40;0.40;;;4.70;99.90;;;;;;4968991;28;20509;-72
2023/04/03 09:56:00;;;;;;;0.30;0.30;;;4.70;99.90;;;;;;4980242;28;20516;-74
2023/04/03 09:58:37;;;;;;;1.00;0.77;;;4.80;99.90;;;;;;4953319;28;20085;-75
2023/04/03 10:01:03;;;;;;;1.23;1.13;;;4.80;99.90;;;;;;4968790;28;20054;-73
2023/04/03 10:03:36;;;;;;;2.30;1.65;;;4.80;99.90;;;;;;4950743;28;20603;-73
2023/04/03 10:06:24;;;;;;;0.45;0.45;;;4.90;99.90;;;;;;4953749;28;20090;-72
2023/04/03 10:09:04;;;;;;;1.13;0.40;;;4.90;99.90;;;;;;4953759;28;20129;-75
2023/04/03 10:11:30;;;;;;;0.47;0.47;;;4.90;99.90;;;;;;4964332;28;20261;-76
2023/04/03 10:14:00;;;;;;;7.05;1.38;;;5.00;99.90;;;;;;4968378;28;20216;-73
2023/04/03 10:16:36;;;;;;;0.30;0.30;;;5.10;99.90;;;;;;4983123;28;20088;-73
2023/04/03 10:19:30;;;;;;;0.10;0.10;;;5.10;99.90;;;;;;4969778;28;20049;-75
2023/04/03 10:22:02;;;;;;;0.20;0.20;;;5.10;99.90;;;;;;4970115;28;20591;-72
2023/04/03 10:24:56;;;;;;;0.30;0.30;;;5.20;99.90;;;;;;4986307;28;20077;-72
2023/04/03 10:27:48;;;;;;;0.93;0.50;;;5.20;99.90;;;;;;4978442;28;20046;-75
2023/04/03 10:30:32;;;;;;;0.40;0.40;;;5.30;99.90;;;;;;4982372;28;20524;-73
2023/04/03 10:33:16;;;;;;;3.28;1.23;;;5.40;99.90;;;;;;4987537;28;20372;-73
2023/04/03 10:36:00;;;;;;;0.13;0.13;;;5.40;99.90;;;;;;4968645;28;20516;-74
2023/04/03 10:38:57;;;;;;;0.85;0.50;;;5.40;99.90;;;;;;4976955;28;20141;-72
2023/04/03 10:41:55;;;;;;;0.20;0.20;;;5.50;99.90;;;;;;4985340;28;20138;-73
2023/04/03 10:44:27;;;;;;;4.18;1.05;;;5.60;99.90;;;;;;4987068;28;20042;-73
2023/04/03 10:47:07;;;;;;;0.20;0.20;;;5.60;99.90;;;;;;4984379;28;20087;-73
2023/04/03 10:50:17;;;;;;;0.50;0.50;;;5.60;99.90;;;;;;4985912;28;20516;-74
2023/04/03 10:52:52;;;;;;;0.40;0.40;;;5.70;99.90;;;;;;4987728;28;20078;-74
2023/04/03 10:55:34;;;;;;;0.20;0.20;;;5.70;99.90;;;;;;4985793;28;20042;-73
2023/04/03 10:58:02;;;;;;;0.20;0.20;;;5.70;99.90;;;;;;4986852;28;20129;-76
2023/04/03 11:00:44;;;;;;;0.60;0.43;;;5.70;99.90;;;;;;4986519;28;20100;-73
2023/04/03 11:03:25;;;;;;;0.63;0.63;;;5.80;99.90;;;;;;4968897;28;20053;-73
2023/04/03 11:05:55;;;;;;;0.10;0.10;;;5.90;99.90;;;;;;4985297;28;20113;-73
2023/04/03 11:08:35;;;;;;;1.25;1.20;;;5.90;99.90;;;;;;4985461;28;20038;-73
2023/04/03 11:11:35;;;;;;;0.60;0.55;;;5.90;99.90;;;;;;4983745;28;20066;-74
2023/04/03 11:14:15;;;;;;;1.15;1.08;;;6.00;99.90;;;;;;4951017;28;20065;-74
2023/04/03 11:16:46;;;;;;;0.40;0.40;;;6.00;99.90;;;;;;4965221;28;20394;-73
2023/04/03 11:19:21;;;;;;;0.30;0.30;;;6.00;99.90;;;;;;4983419;28;20042;-74
2023/04/03 11:22:02;;;;;;;0.28;0.22;;;6.10;99.90;;;;;;4984370;28;20046;-74
2023/04/03 11:24:31;;;;;;;0.30;0.30;;;6.10;99.90;;;;;;4983939;28;20038;-74
2023/04/03 11:27:00;;;;;;;0.25;0.25;;;6.10;99.90;;;;;;4982288;28;20053;-74
2023/04/03 11:29:33;;;;;;;1.00;0.85;;;6.20;99.90;;;;;;4974479;28;20042;-73
2023/04/03 11:32:27;;;;;;;0.40;0.40;;;6.20;99.90;;;;;;4966391;28;20057;-74
2023/04/03 11:34:58;;;;;;;0.28;0.13;;;6.20;99.90;;;;;;4967460;28;20053;-73
2023/04/03 11:37:39;;;;;;;0.25;0.25;;;6.20;99.90;;;;;;4981728;28;20072;-73
2023/04/03 11:40:21;;;;;;;0.20;0.20;;;6.30;99.90;;;;;;4968818;28;20038;-73
2023/04/03 11:42:54;;;;;;;0.65;0.65;;;6.30;99.90;;;;;;4978396;28;20480;-73
2023/04/03 11:45:26;;;;;;;0.88;0.63;;;6.30;99.90;;;;;;4978860;28;20129;-73
2023/04/03 11:47:56;;;;;;;0.10;0.10;;;6.40;99.90;;;;;;4978930;28;20359;-75
2023/04/03 11:50:32;;;;;;;1.02;1.00;;;6.50;99.90;;;;;;4984598;28;20469;-74
2023/04/03 11:53:07;;;;;;;0.40;0.40;;;6.50;99.90;;;;;;4983756;28;20046;-73
2023/04/03 11:55:33;;;;;;;2.38;0.68;;;6.50;99.90;;;;;;4985693;28;20086;-74
2023/04/03 11:57:59;;;;;;;0.57;0.30;;;6.50;99.90;;;;;;4975936;28;20078;-73
2023/04/03 12:01:02;;;;;;;1.13;0.60;;;6.50;99.90;;;;;;4971013;28;20394;-74
2023/04/03 12:03:31;;;;;;;0.20;0.20;;;6.50;99.90;;;;;;4906886;29;20055;-73
2023/04/03 12:06:16;;;;;;;1.67;0.60;;;6.50;99.90;;;;;;4954845;28;20054;-75
2023/04/03 12:08:41;;;;;;;0.82;0.40;;;6.60;99.90;;;;;;4982857;28;20050;-73
2023/04/03 12:11:10;;;;;;;2.15;0.70;;;6.60;99.90;;;;;;4966660;28;20532;-75
2023/04/03 12:14:02;;;;;;;0.20;0.20;;;6.70;99.90;;;;;;4983103;28;20054;-74
2023/04/03 12:16:34;;;;;;;0.30;0.30;;;6.70;99.90;;;;;;4983999;28;20043;-74
2023/04/03 12:19:15;;;;;;;0.20;0.20;;;6.70;99.90;;;;;;4967957;28;20805;-76
2023/04/03 12:21:56;;;;;;;0.52;0.38;;;6.70;99.90;;;;;;4984267;28;20074;-75
2023/04/03 12:24:30;;;;;;;0.25;0.25;;;6.70;99.90;;;;;;4986140;28;20054;-74
2023/04/03 12:26:59;;;;;;;0.57;0.57;;;6.80;99.90;;;;;;4986260;28;20153;-74
2023/04/03 12:29:33;;;;;;;0.40;0.40;;;6.80;99.90;;;;;;4984782;28;20045;-74
2023/04/03 12:32:18;;;;;;;1.33;0.40;;;6.80;99.90;;;;;;4983546;28;20046;-75
2023/04/03 12:35:09;;;;;;;0.35;0.35;;;6.90;99.90;;;;;;4984547;28;20455;-75
2023/04/03 12:38:03;;;;;;;0.20;0.10;;;6.80;99.90;;;;;;4984628;28;20058;-77
2023/04/03 12:40:52;;;;;;;0.63;0.32;;;6.90;99.90;;;;;;4980815;28;20112;-77
2023/04/03 12:43:42;;;;;;;0.32;0.30;;;6.90;99.90;;;;;;4963323;28;20713;-74
2023/04/03 12:46:07;;;;;;;0.30;0.30;;;6.90;99.90;;;;;;4982876;28;20133;-74
2023/04/03 12:48:55;;;;;;;0.28;0.28;;;6.90;99.90;;;;;;4964244;28;20145;-75
2023/04/03 12:51:36;;;;;;;0.28;0.28;;;7.00;99.90;;;;;;4981442;28;20038;-74
2023/04/03 12:54:21;;;;;;;0.93;0.93;;;7.00;99.90;;;;;;4983419;28;20046;-74
2023/04/03 12:56:47;;;;;;;0.77;0.77;;;7.00;99.90;;;;;;4960559;28;20141;-74
2023/04/03 12:59:13;;;;;;;1.00;0.30;;;7.00;99.90;;;;;;4974742;28;20930;-75
2023/04/03 13:01:38;;;;;;;1.05;0.30;;;7.00;99.90;;;;;;4990183;28;20042;-74
2023/04/03 13:04:04;;;;;;;0.82;0.82;;;7.00;99.90;;;;;;4974530;28;20054;-72
2023/04/03 13:06:42;;;;;;;0.47;0.35;;;7.00;99.90;;;;;;4979743;28;20392;-74
2023/04/03 13:09:30;;;;;;;0.32;0.32;;;7.00;99.90;;;;;;4972535;28;20511;-73
2023/04/03 13:12:01;;;;;;;0.65;0.65;;;7.00;99.90;;;;;;4977674;28;20371;-73